createdAt,value
2017-09-08T00:01:03.031Z,9.00
2017-09-08T00:03:36.477Z,11.87
2017-09-08T00:06:07.162Z,9.33
2017-09-08T00:08:37.607Z,10.07
2017-09-08T00:11:08.185Z,9.83
2017-09-08T00:13:38.836Z,10.77
2017-09-08T00:16:09.297Z,8.53
2017-09-08T00:18:41.043Z,9.60
2017-09-08T00:21:11.556Z,7.83
2017-09-08T00:23:42.490Z,8.17
2017-09-08T00:26:13.097Z,7.80
2017-09-08T00:28:43.609Z,22.70
2017-09-08T00:31:14.137Z,8.30
2017-09-08T00:33:44.649Z,12.17
2017-09-08T00:36:15.600Z,10.47
2017-09-08T00:38:46.181Z,10.80
2017-09-08T00:41:16.728Z,8.10
2017-09-08T00:43:47.208Z,9.27
2017-09-08T00:46:17.835Z,9.97
2017-09-08T00:48:48.738Z,8.40
2017-09-08T00:51:19.250Z,11.40
2017-09-08T00:53:50.710Z,8.30
2017-09-08T00:56:21.215Z,8.53
2017-09-08T00:58:51.790Z,15.03
2017-09-08T01:01:22.420Z,6.80
2017-09-08T01:03:53.073Z,9.93
2017-09-08T01:06:24.029Z,9.30
2017-09-08T01:08:54.656Z,14.03
2017-09-08T01:11:25.165Z,13.07
2017-09-08T01:13:55.740Z,7.90
2017-09-08T01:16:26.309Z,8.90
2017-09-08T01:18:56.974Z,11.70
2017-09-08T01:21:27.853Z,8.97
2017-09-08T01:23:59.245Z,16.90
2017-09-08T01:26:29.843Z,5.87
2017-09-08T01:29:00.480Z,6.27
2017-09-08T01:31:31.001Z,6.23
2017-09-08T01:34:01.523Z,9.50
2017-09-08T01:36:33.499Z,6.87
2017-09-08T01:39:04.014Z,6.20
2017-09-08T01:41:35.061Z,6.03
2017-09-08T01:44:05.685Z,7.53
2017-09-08T01:46:36.338Z,12.10
2017-09-08T01:49:06.950Z,9.87
2017-09-08T01:51:38.330Z,16.50
2017-09-08T01:54:08.925Z,13.77
2017-09-08T01:56:39.530Z,8.33
2017-09-08T01:59:10.082Z,9.23
2017-09-08T02:01:40.559Z,7.80
2017-09-08T02:04:11.122Z,9.13
2017-09-08T02:06:42.204Z,6.80
2017-09-08T02:09:12.780Z,7.10
2017-09-08T02:11:44.666Z,10.10
2017-09-08T02:14:15.284Z,7.33
2017-09-08T02:16:45.871Z,9.70
2017-09-08T02:19:16.420Z,8.50
2017-09-08T02:21:51.988Z,19.97
2017-09-08T02:24:22.835Z,23.43
2017-09-08T02:26:53.385Z,15.33
2017-09-08T02:29:23.891Z,13.07
2017-09-08T02:31:54.511Z,14.33
2017-09-08T02:34:25.141Z,9.40
2017-09-08T02:36:56.120Z,12.40
2017-09-08T02:39:26.734Z,12.60
2017-09-08T02:41:58.013Z,9.03
2017-09-08T02:44:28.707Z,8.70
2017-09-08T02:46:59.561Z,9.47
2017-09-08T02:49:30.953Z,8.73
2017-09-08T02:52:01.531Z,10.90
2017-09-08T02:54:33.331Z,7.67
2017-09-08T02:57:03.940Z,12.50
2017-09-08T02:59:34.632Z,10.50
2017-09-08T03:02:05.152Z,10.63
2017-09-08T03:04:35.675Z,13.23
2017-09-08T03:07:06.717Z,10.20
2017-09-08T03:09:37.307Z,14.10
2017-09-08T03:12:08.451Z,14.00
2017-09-08T03:14:38.921Z,14.07
2017-09-08T03:17:09.395Z,16.70
2017-09-08T03:19:39.930Z,11.80
2017-09-08T03:22:10.504Z,11.83
2017-09-08T03:24:41.586Z,12.07
2017-09-08T03:27:12.210Z,12.07
2017-09-08T03:29:43.905Z,12.57
2017-09-08T03:32:14.540Z,11.37
2017-09-08T03:34:45.152Z,19.83
2017-09-08T03:37:15.702Z,12.13
2017-09-08T03:39:46.320Z,13.83
2017-09-08T03:42:17.674Z,11.83
2017-09-08T03:44:48.251Z,11.70
2017-09-08T03:47:18.884Z,13.53
2017-09-08T03:49:49.446Z,12.67
2017-09-08T03:52:20.024Z,12.87
2017-09-08T03:54:50.707Z,12.70
2017-09-08T03:57:21.316Z,14.60
2017-09-08T03:59:53.099Z,17.50
2017-09-08T04:02:24.561Z,14.50
2017-09-08T04:04:55.128Z,14.30
2017-09-08T04:07:25.757Z,14.90
2017-09-08T04:09:56.635Z,17.60
2017-09-08T04:12:27.607Z,15.27
2017-09-08T04:14:58.245Z,14.30
2017-09-08T04:17:28.787Z,15.60
2017-09-08T04:19:59.407Z,19.30
2017-09-08T04:22:29.949Z,14.27
2017-09-08T04:25:00.872Z,15.37
2017-09-08T04:27:31.533Z,15.77
2017-09-08T04:30:02.500Z,23.73
2017-09-08T04:32:33.011Z,13.47
2017-09-08T04:35:03.629Z,16.80
2017-09-08T04:37:34.207Z,17.80
2017-09-08T04:40:04.869Z,14.73
2017-09-08T04:42:35.884Z,15.97
2017-09-08T04:45:06.755Z,12.83
2017-09-08T04:47:37.819Z,11.10
2017-09-08T04:50:08.490Z,12.50
2017-09-08T04:52:38.864Z,12.70
2017-09-08T04:55:09.326Z,19.73
2017-09-08T04:57:39.871Z,10.40
2017-09-08T05:00:11.082Z,12.03
2017-09-08T05:02:41.764Z,11.20
2017-09-08T05:05:13.214Z,14.33
2017-09-08T05:07:43.741Z,10.80
2017-09-08T05:10:14.303Z,12.47
2017-09-08T05:12:45.452Z,13.23
2017-09-08T05:15:16.151Z,14.83
2017-09-08T05:17:47.295Z,12.33
2017-09-08T05:20:17.995Z,11.60
2017-09-08T05:22:49.316Z,14.10
2017-09-08T05:25:19.923Z,14.27
2017-09-08T05:27:51.128Z,15.23
2017-09-08T05:30:22.917Z,16.13
2017-09-08T05:32:53.464Z,12.73
2017-09-08T05:35:24.020Z,16.10
2017-09-08T05:37:54.703Z,20.23
2017-09-08T05:40:25.301Z,26.80
2017-09-08T05:42:56.960Z,15.20
2017-09-08T05:45:28.303Z,15.10
2017-09-08T05:47:59.881Z,15.83
2017-09-08T05:50:30.393Z,12.53
2017-09-08T05:53:00.944Z,15.80
2017-09-08T05:55:31.511Z,23.93
2017-09-08T05:58:02.106Z,15.27
2017-09-08T06:00:32.910Z,21.57
2017-09-08T06:03:03.385Z,13.77
2017-09-08T06:05:33.964Z,17.27
2017-09-08T06:08:04.581Z,16.07
2017-09-08T06:10:35.156Z,20.23
2017-09-08T06:13:05.667Z,13.43
2017-09-08T06:15:36.297Z,21.90
2017-09-08T06:18:08.033Z,15.20
2017-09-08T06:20:38.620Z,15.87
2017-09-08T06:23:09.202Z,17.37
2017-09-08T06:25:39.844Z,15.37
2017-09-08T06:28:10.399Z,14.53
2017-09-08T06:30:41.303Z,18.30
2017-09-08T06:33:11.884Z,19.60
2017-09-08T06:35:42.875Z,14.37
2017-09-08T06:38:14.062Z,15.57
2017-09-08T06:40:44.653Z,13.70
2017-09-08T06:43:15.140Z,21.60
2017-09-08T06:45:45.725Z,15.50
2017-09-08T06:48:16.642Z,20.37
2017-09-08T06:50:47.140Z,19.20
2017-09-08T06:53:17.704Z,21.87
2017-09-08T06:55:48.297Z,15.70
2017-09-08T06:58:20.477Z,14.73
2017-09-08T07:00:51.466Z,14.53
2017-09-08T07:03:22.039Z,16.87
2017-09-08T07:05:52.949Z,21.03
2017-09-08T07:08:23.469Z,18.53
2017-09-08T07:10:54.102Z,18.10
2017-09-08T07:13:24.627Z,23.87
2017-09-08T07:15:55.264Z,26.57
2017-09-08T07:18:26.253Z,21.80
2017-09-08T07:20:56.800Z,17.67
2017-09-08T07:23:27.361Z,16.60
2017-09-08T07:25:58.487Z,16.10
2017-09-08T07:28:28.951Z,22.27
2017-09-08T07:31:04.692Z,30.00
2017-09-08T07:33:35.306Z,14.33
2017-09-08T07:36:06.511Z,13.50
2017-09-08T07:38:37.018Z,13.80
2017-09-08T07:41:07.527Z,19.27
2017-09-08T07:43:38.141Z,13.40
2017-09-08T07:46:08.635Z,14.97
2017-09-08T07:48:40.339Z,17.33
2017-09-08T07:51:10.918Z,25.20
2017-09-08T07:53:42.311Z,11.83
2017-09-08T07:56:12.888Z,12.90
2017-09-08T07:58:43.439Z,12.00
2017-09-08T08:01:14.076Z,18.53
2017-09-08T08:03:44.800Z,12.53
2017-09-08T08:06:16.562Z,15.77
2017-09-08T08:08:47.195Z,12.63
2017-09-08T08:11:17.735Z,13.73
2017-09-08T08:13:49.083Z,17.40
2017-09-08T08:16:19.600Z,12.60
2017-09-08T08:18:50.985Z,13.93
2017-09-08T08:21:21.479Z,18.17
2017-09-08T08:23:52.415Z,13.80
2017-09-08T08:26:23.021Z,13.70
2017-09-08T08:28:53.564Z,20.20
2017-09-08T08:31:24.150Z,17.27
2017-09-08T08:33:54.711Z,16.70
2017-09-08T08:36:25.631Z,16.30
2017-09-08T08:38:56.219Z,21.70
2017-09-08T08:41:26.721Z,16.47
2017-09-08T08:43:57.199Z,16.50
2017-09-08T08:46:27.738Z,21.90
2017-09-08T08:48:58.730Z,17.67
2017-09-08T08:51:29.246Z,24.90
2017-09-08T08:54:00.811Z,28.03
2017-09-08T08:56:31.344Z,18.40
2017-09-08T08:59:01.828Z,22.77
2017-09-08T09:01:32.393Z,20.10
2017-09-08T09:04:03.653Z,28.30
2017-09-08T09:06:34.672Z,23.53
2017-09-08T09:09:05.277Z,26.40
2017-09-08T09:11:35.941Z,18.93
2017-09-08T09:14:07.159Z,19.77
2017-09-08T09:16:37.751Z,21.43
2017-09-08T09:19:08.284Z,24.47
2017-09-08T09:21:38.824Z,28.20
2017-09-08T09:24:09.408Z,24.60
2017-09-08T09:26:39.865Z,31.40
2017-09-08T09:29:10.380Z,20.73
2017-09-08T09:31:40.891Z,26.03
2017-09-08T09:34:11.286Z,27.23
2017-09-08T09:36:41.904Z,24.80
2017-09-08T09:39:12.557Z,22.73
2017-09-08T09:41:43.267Z,28.07
2017-09-08T09:44:13.687Z,29.87
2017-09-08T09:46:44.306Z,23.40
2017-09-08T09:49:17.125Z,26.17
2017-09-08T09:51:47.806Z,32.60
2017-09-08T09:54:18.903Z,31.80
2017-09-08T09:56:49.444Z,28.07
2017-09-08T09:59:19.876Z,28.63
2017-09-08T10:01:51.203Z,27.30
2017-09-08T10:04:21.707Z,28.87
2017-09-08T10:06:52.734Z,32.33
2017-09-08T10:09:24.193Z,28.20
2017-09-08T10:11:55.169Z,30.30
2017-09-08T10:14:25.667Z,28.20
2017-09-08T10:16:56.177Z,27.50
2017-09-08T10:19:26.547Z,24.23
2017-09-08T10:21:56.985Z,31.03
2017-09-08T10:24:28.719Z,30.20
2017-09-08T10:26:59.239Z,26.90
2017-09-08T10:29:29.988Z,26.87
2017-09-08T10:32:00.547Z,23.00
2017-09-08T10:34:31.314Z,20.90
2017-09-08T10:37:01.788Z,18.07
2017-09-08T10:39:33.049Z,15.93
2017-09-08T10:42:04.679Z,17.83
2017-09-08T10:44:35.131Z,11.90
2017-09-08T10:47:05.736Z,9.60
2017-09-08T10:49:36.294Z,19.30
2017-09-08T10:52:06.785Z,17.60
2017-09-08T10:54:37.832Z,9.60
2017-09-08T10:57:08.329Z,9.63
2017-09-08T10:59:39.333Z,7.70
2017-09-08T11:02:09.901Z,6.77
2017-09-08T11:04:40.427Z,12.47
2017-09-08T11:07:10.853Z,13.83
2017-09-08T11:09:41.306Z,11.37
2017-09-08T11:12:12.137Z,9.00
2017-09-08T11:14:42.604Z,13.07
2017-09-08T11:17:13.142Z,8.63
2017-09-08T11:19:44.415Z,10.00
2017-09-08T11:22:14.963Z,12.53
2017-09-08T11:24:45.433Z,8.87
2017-09-08T11:27:15.855Z,9.57
2017-09-08T11:29:47.624Z,12.20
2017-09-08T11:32:18.313Z,14.40
2017-09-08T11:34:53.665Z,9.00
2017-09-08T11:37:24.147Z,16.37
2017-09-08T11:39:54.971Z,17.37
2017-09-08T11:42:26.688Z,13.60
2017-09-08T11:44:57.173Z,10.53
2017-09-08T11:47:27.643Z,12.33
2017-09-08T11:49:58.154Z,18.27
2017-09-08T11:52:28.657Z,20.53
2017-09-08T11:54:59.176Z,18.17
2017-09-08T11:57:29.762Z,14.00
2017-09-08T12:00:00.324Z,18.27
2017-09-08T12:02:30.819Z,19.67
2017-09-08T12:05:01.333Z,22.63
2017-09-08T12:07:31.904Z,23.70
2017-09-08T12:10:02.447Z,20.40
2017-09-08T12:12:33.145Z,20.77
2017-09-08T12:15:03.644Z,26.73
2017-09-08T12:17:34.757Z,20.97
2017-09-08T12:20:05.267Z,23.33
2017-09-08T12:22:35.759Z,16.00
2017-09-08T12:25:06.312Z,17.43
2017-09-08T12:27:38.404Z,16.67
2017-09-08T12:30:09.305Z,26.80
2017-09-08T12:32:39.784Z,16.70
2017-09-08T12:35:10.318Z,17.87
2017-09-08T12:37:41.879Z,18.73
2017-09-08T12:40:12.488Z,26.57
2017-09-08T12:42:43.583Z,26.97
2017-09-08T12:45:14.035Z,16.43
2017-09-08T12:47:45.712Z,17.97
2017-09-08T12:50:16.261Z,16.30
2017-09-08T12:52:46.762Z,17.10
2017-09-08T12:55:17.268Z,14.77
2017-09-08T12:57:48.535Z,15.03
2017-09-08T13:00:19.352Z,14.40
2017-09-08T13:02:49.911Z,13.50
2017-09-08T13:05:20.368Z,14.73
2017-09-08T13:07:50.825Z,13.63
2017-09-08T13:10:21.295Z,19.43
2017-09-08T13:12:51.852Z,20.53
2017-09-08T13:15:22.333Z,25.47
2017-09-08T13:17:53.135Z,21.97
2017-09-08T13:20:23.627Z,15.57
2017-09-08T13:22:54.091Z,26.90
2017-09-08T13:25:24.657Z,26.47
2017-09-08T13:27:55.232Z,17.77
2017-09-08T13:30:26.094Z,24.23
2017-09-08T13:32:56.710Z,21.73
2017-09-08T13:35:27.580Z,18.77
2017-09-08T13:37:58.156Z,19.60
2017-09-08T13:40:28.598Z,22.33
2017-09-08T13:42:59.116Z,23.90
2017-09-08T13:45:29.671Z,21.60
2017-09-08T13:48:00.617Z,19.73
2017-09-08T13:50:31.115Z,16.43
2017-09-08T13:53:01.596Z,20.03
2017-09-08T13:55:32.851Z,16.57
2017-09-08T13:58:03.286Z,18.00
2017-09-08T14:00:34.901Z,22.87
2017-09-08T14:03:05.278Z,17.57
2017-09-08T14:05:36.121Z,25.93
2017-09-08T14:08:06.668Z,27.90
2017-09-08T14:10:37.101Z,22.37
2017-09-08T14:13:07.672Z,19.80
2017-09-08T14:15:38.190Z,23.60
2017-09-08T14:18:09.903Z,29.63
2017-09-08T14:20:40.481Z,25.70
2017-09-08T14:23:11.086Z,30.43
2017-09-08T14:25:41.638Z,22.87
2017-09-08T14:28:12.200Z,31.60
2017-09-08T14:30:42.689Z,31.73
2017-09-08T14:33:13.924Z,27.83
2017-09-08T14:35:44.588Z,27.90
2017-09-08T14:38:15.204Z,30.50
2017-09-08T14:40:45.748Z,31.93
2017-09-08T14:43:16.285Z,32.47
2017-09-08T14:45:46.761Z,29.93
2017-09-08T14:48:17.756Z,28.47
2017-09-08T14:50:48.262Z,25.40
2017-09-08T14:53:19.989Z,28.87
2017-09-08T14:55:51.266Z,19.50
2017-09-08T14:58:22.854Z,24.30
2017-09-08T15:00:53.398Z,22.77
2017-09-08T15:03:23.915Z,27.17
2017-09-08T15:05:54.816Z,18.30
2017-09-08T15:08:25.291Z,21.90
2017-09-08T15:10:55.774Z,23.77
2017-09-08T15:13:26.292Z,20.00
2017-09-08T15:15:56.775Z,24.83
2017-09-08T15:18:27.720Z,25.60
2017-09-08T15:20:58.163Z,23.47
2017-09-08T15:23:29.003Z,18.93
2017-09-08T15:25:59.556Z,25.10
2017-09-08T15:28:30.012Z,31.90
2017-09-08T15:31:00.550Z,25.73
2017-09-08T15:33:31.107Z,26.07
2017-09-08T15:36:02.143Z,20.83
2017-09-08T15:38:32.812Z,31.27
2017-09-08T15:41:04.232Z,23.67
2017-09-08T15:43:34.728Z,21.67
2017-09-08T15:46:05.351Z,25.80
2017-09-08T15:48:35.814Z,24.33
2017-09-08T15:51:06.392Z,23.10
2017-09-08T15:53:37.198Z,22.77
2017-09-08T15:56:07.890Z,23.23
2017-09-08T15:58:38.416Z,26.07
2017-09-08T16:01:08.935Z,24.90
2017-09-08T16:03:39.487Z,25.53
2017-09-08T16:06:10.480Z,26.27
2017-09-08T16:08:42.581Z,27.40
2017-09-08T16:11:13.143Z,28.93
2017-09-08T16:13:43.857Z,29.57
2017-09-08T16:16:14.401Z,24.60
2017-09-08T16:18:45.039Z,26.60
2017-09-08T16:21:15.611Z,25.17
2017-09-08T16:23:46.102Z,25.53
2017-09-08T16:26:16.670Z,23.60
2017-09-08T16:28:47.259Z,30.67
2017-09-08T16:31:17.763Z,26.27
2017-09-08T16:33:48.302Z,30.30
2017-09-08T16:36:18.860Z,40.13
2017-09-08T16:38:50.213Z,40.50
2017-09-08T16:41:22.056Z,36.80
2017-09-08T16:43:52.593Z,53.17
2017-09-08T16:46:23.160Z,37.10
2017-09-08T16:48:53.801Z,41.17
2017-09-08T16:51:24.238Z,37.83
2017-09-08T16:53:55.601Z,27.90
2017-09-08T16:56:26.065Z,37.60
2017-09-08T16:58:56.746Z,37.77
2017-09-08T17:01:27.253Z,44.20
2017-09-08T17:03:57.772Z,48.80
2017-09-08T17:06:28.211Z,38.87
2017-09-08T17:09:02.723Z,38.60
2017-09-08T17:11:33.346Z,33.63
2017-09-08T17:14:03.847Z,33.77
2017-09-08T17:16:35.276Z,45.80
2017-09-08T17:19:05.926Z,39.27
2017-09-08T17:21:36.633Z,38.70
2017-09-08T17:24:07.739Z,38.73
2017-09-08T17:26:38.459Z,35.87
2017-09-08T17:29:09.286Z,52.53
2017-09-08T17:31:39.747Z,45.80
2017-09-08T17:34:10.271Z,36.70
2017-09-08T17:36:40.786Z,41.40
2017-09-08T17:39:11.296Z,52.17
2017-09-08T17:41:43.035Z,43.13
2017-09-08T17:44:13.488Z,34.30
2017-09-08T17:46:44.729Z,35.60
2017-09-08T17:49:15.244Z,30.63
2017-09-08T17:51:46.507Z,26.67
2017-09-08T17:54:17.456Z,33.53
2017-09-08T17:56:48.039Z,49.83
2017-09-08T17:59:18.796Z,32.17
2017-09-08T18:01:49.249Z,33.37
2017-09-08T18:04:26.210Z,25.43
2017-09-08T18:06:58.134Z,22.77
2017-09-08T18:09:31.646Z,27.63
2017-09-08T18:12:03.899Z,28.53
2017-09-08T18:14:34.571Z,32.13
2017-09-08T18:17:05.027Z,28.77
2017-09-08T18:19:35.533Z,27.17
2017-09-08T18:22:06.793Z,31.23
2017-09-08T18:24:37.952Z,33.03
2017-09-08T18:27:08.420Z,23.77
2017-09-08T18:29:39.323Z,27.40
2017-09-08T18:32:09.817Z,25.33
2017-09-08T18:34:41.145Z,27.37
2017-09-08T18:37:11.598Z,25.50
2017-09-08T18:39:43.043Z,31.83
2017-09-08T18:42:14.775Z,26.20
2017-09-08T18:44:45.300Z,36.77
2017-09-08T18:47:15.845Z,25.20
2017-09-08T18:49:46.350Z,32.53
2017-09-08T18:52:17.974Z,32.60
2017-09-08T18:54:50.335Z,26.03
2017-09-08T18:57:22.141Z,25.30
2017-09-08T18:59:54.406Z,27.63
2017-09-08T19:02:26.264Z,27.03
2017-09-08T19:04:58.134Z,23.50
2017-09-08T19:07:29.977Z,32.73
2017-09-08T19:10:01.563Z,38.00
2017-09-08T19:12:33.539Z,32.20
2017-09-08T19:15:04.910Z,37.47
2017-09-08T19:17:36.418Z,33.37
2017-09-08T19:20:07.460Z,29.83
2017-09-08T19:22:38.602Z,23.93
2017-09-08T19:25:10.749Z,34.17
2017-09-08T19:27:41.990Z,34.70
2017-09-08T19:30:13.392Z,26.27
2017-09-08T19:32:44.557Z,29.23
2017-09-08T19:35:15.665Z,33.40
2017-09-08T19:37:46.807Z,28.60
2017-09-08T19:40:18.106Z,23.43
2017-09-08T19:42:49.663Z,24.33
2017-09-08T19:45:20.842Z,24.57
2017-09-08T19:47:51.937Z,27.97
2017-09-08T19:50:23.191Z,22.07
2017-09-08T19:52:54.364Z,20.60
2017-09-08T19:55:25.997Z,23.67
2017-09-08T19:57:57.236Z,24.20
2017-09-08T20:00:28.809Z,39.27
2017-09-08T20:02:59.956Z,33.23
2017-09-08T20:05:31.053Z,28.07
2017-09-08T20:08:02.195Z,30.33
2017-09-08T20:10:33.268Z,23.10
2017-09-08T20:13:04.895Z,24.93
2017-09-08T20:15:36.145Z,18.90
2017-09-08T20:18:07.499Z,18.40
2017-09-08T20:20:38.612Z,16.30
2017-09-08T20:23:09.672Z,16.43
2017-09-08T20:25:41.413Z,19.67
2017-09-08T20:28:12.473Z,22.70
2017-09-08T20:30:44.048Z,23.43
2017-09-08T20:33:15.187Z,18.83
2017-09-08T20:35:46.221Z,19.00
2017-09-08T20:38:17.325Z,22.80
2017-09-08T20:40:49.131Z,20.20
2017-09-08T20:43:20.920Z,14.10
2017-09-08T20:45:52.068Z,15.00
2017-09-08T20:48:23.253Z,14.20
2017-09-08T20:50:54.416Z,29.90
2017-09-08T20:53:25.614Z,16.60
2017-09-08T20:55:57.215Z,16.33
2017-09-08T20:58:28.264Z,15.90
2017-09-08T21:01:00.648Z,21.33
2017-09-08T21:03:31.822Z,21.90
2017-09-08T21:06:03.816Z,14.97
2017-09-08T21:08:35.028Z,16.67
2017-09-08T21:11:06.227Z,19.40
2017-09-08T21:13:37.834Z,19.77
2017-09-08T21:16:09.723Z,22.23
2017-09-08T21:18:40.909Z,15.27
2017-09-08T21:21:12.021Z,16.13
2017-09-08T21:23:43.152Z,18.77
2017-09-08T21:26:14.654Z,19.90
2017-09-08T21:28:45.805Z,27.43
2017-09-08T21:31:18.032Z,16.20
2017-09-08T21:33:49.202Z,19.40
2017-09-08T21:36:20.212Z,25.50
2017-09-08T21:38:51.334Z,22.43
2017-09-08T21:41:22.458Z,17.40
2017-09-08T21:43:56.061Z,17.10
2017-09-08T21:46:28.241Z,14.57
2017-09-08T21:49:00.308Z,18.23
2017-09-08T21:51:31.512Z,17.93
2017-09-08T21:54:02.752Z,15.23
2017-09-08T21:56:34.391Z,16.23
2017-09-08T21:59:05.594Z,26.60
2017-09-08T22:01:37.157Z,27.07
2017-09-08T22:04:08.313Z,23.93
2017-09-08T22:06:39.411Z,18.20
2017-09-08T22:09:10.511Z,20.90
2017-09-08T22:11:41.625Z,22.00
2017-09-08T22:14:13.088Z,15.93
2017-09-08T22:16:44.168Z,23.77
2017-09-08T22:19:20.167Z,14.97
2017-09-08T22:21:51.419Z,19.83
2017-09-08T22:24:22.626Z,15.67
2017-09-08T22:26:54.194Z,18.83
2017-09-08T22:29:25.295Z,27.93
2017-09-08T22:31:56.856Z,17.37
2017-09-08T22:34:27.993Z,27.67
2017-09-08T22:36:59.206Z,15.57
2017-09-08T22:39:30.462Z,15.73
2017-09-08T22:42:01.674Z,18.37
2017-09-08T22:44:33.935Z,25.43
2017-09-08T22:47:05.125Z,16.93
2017-09-08T22:49:36.173Z,20.23
2017-09-08T22:52:07.402Z,15.60
2017-09-08T22:54:38.673Z,18.70
2017-09-08T22:57:10.167Z,17.73
2017-09-08T22:59:41.246Z,14.57
2017-09-08T23:02:12.806Z,20.80
2017-09-08T23:04:43.897Z,14.57
2017-09-08T23:07:15.176Z,16.17
2017-09-08T23:09:46.261Z,26.13
2017-09-08T23:12:17.458Z,16.03
2017-09-08T23:14:49.044Z,21.97
2017-09-08T23:17:20.245Z,24.73
2017-09-08T23:19:51.330Z,18.03
2017-09-08T23:22:22.546Z,21.50
2017-09-08T23:24:53.761Z,17.37
2017-09-08T23:27:26.031Z,17.87
2017-09-08T23:29:57.089Z,24.87
2017-09-08T23:32:29.133Z,19.87
2017-09-08T23:35:00.173Z,22.50
2017-09-08T23:37:31.322Z,16.13
2017-09-08T23:40:03.189Z,22.63
2017-09-08T23:42:34.404Z,23.20
2017-09-08T23:45:05.948Z,24.63
2017-09-08T23:47:37.888Z,16.40
2017-09-08T23:50:08.945Z,23.90
2017-09-08T23:52:40.209Z,17.60
2017-09-08T23:55:12.524Z,24.27
2017-09-08T23:57:43.629Z,17.17
